createdAt,value
2017-04-04T00:00:48.398Z,0
2017-04-04T00:01:48.353Z,0
2017-04-04T00:02:48.727Z,0
2017-04-04T00:03:48.685Z,0
2017-04-04T00:04:48.691Z,0
2017-04-04T00:05:48.685Z,0
2017-04-04T00:06:48.342Z,0
2017-04-04T00:07:49.201Z,0
2017-04-04T00:08:48.649Z,0
2017-04-04T00:09:48.614Z,0
2017-04-04T00:10:48.733Z,0
2017-04-04T00:11:48.717Z,0
2017-04-04T00:12:48.824Z,0
2017-04-04T00:13:48.675Z,0
2017-04-04T00:14:48.700Z,0
2017-04-04T00:15:48.746Z,0
2017-04-04T00:16:48.754Z,0
2017-04-04T00:17:48.073Z,0
2017-04-04T00:18:49.418Z,0
2017-04-04T00:19:48.446Z,0
2017-04-04T00:20:48.963Z,0
2017-04-04T00:21:48.734Z,0
2017-04-04T00:22:48.826Z,0
2017-04-04T00:23:48.423Z,0
2017-04-04T00:24:48.480Z,0
2017-04-04T00:25:48.799Z,0
2017-04-04T00:26:48.219Z,0
2017-04-04T00:27:48.819Z,0
2017-04-04T00:28:48.772Z,0
2017-04-04T00:29:49.728Z,0
2017-04-04T00:30:48.824Z,0
2017-04-04T00:31:49.328Z,0
2017-04-04T00:32:48.784Z,0
2017-04-04T00:33:48.530Z,0
2017-04-04T00:34:48.477Z,0
2017-04-04T00:35:48.818Z,0
2017-04-04T00:36:48.555Z,0
2017-04-04T00:37:48.818Z,0
2017-04-04T00:38:48.821Z,0
2017-04-04T00:39:48.869Z,0
2017-04-04T00:40:49.126Z,0
2017-04-04T00:41:49.185Z,0
2017-04-04T00:42:49.732Z,0
2017-04-04T00:43:48.544Z,0
2017-04-04T00:44:48.941Z,0
2017-04-04T00:45:48.590Z,0
2017-04-04T00:46:48.912Z,0
2017-04-04T00:47:48.602Z,0
2017-04-04T00:48:48.911Z,0
2017-04-04T00:49:48.572Z,0
2017-04-04T00:50:48.616Z,0
2017-04-04T00:51:48.915Z,0
2017-04-04T00:52:48.716Z,0
2017-04-04T00:53:50.197Z,0
2017-04-04T00:54:48.894Z,0
2017-04-04T00:55:49.415Z,0
2017-04-04T00:56:48.950Z,0
2017-04-04T00:57:48.920Z,0
2017-04-04T00:58:48.992Z,0
2017-04-04T00:59:48.925Z,0
2017-04-04T01:00:48.929Z,0
2017-04-04T01:01:48.359Z,0
2017-04-04T01:02:48.939Z,0
2017-04-04T01:03:48.954Z,0
2017-04-04T01:04:50.573Z,0
2017-04-04T01:05:48.965Z,0
2017-04-04T01:06:49.801Z,0
2017-04-04T01:07:48.964Z,0
2017-04-04T01:08:48.771Z,0
2017-04-04T01:09:49.025Z,0
2017-04-04T01:10:49.043Z,0
2017-04-04T01:11:48.460Z,0
2017-04-04T01:12:49.049Z,0
2017-04-04T01:13:49.071Z,0
2017-04-04T01:14:49.057Z,0
2017-04-04T01:15:48.695Z,0
2017-04-04T01:16:49.024Z,0
2017-04-04T01:17:50.196Z,0
2017-04-04T01:18:49.036Z,0
2017-04-04T01:19:49.039Z,0
2017-04-04T01:20:49.034Z,0
2017-04-04T01:21:48.785Z,0
2017-04-04T01:22:49.102Z,0
2017-04-04T01:23:49.107Z,0
2017-04-04T01:24:49.226Z,0
2017-04-04T01:25:49.122Z,0
2017-04-04T01:26:48.752Z,0
2017-04-04T01:27:49.076Z,0
2017-04-04T01:28:48.870Z,0
2017-04-04T01:29:49.093Z,0
2017-04-04T01:30:49.102Z,0
2017-04-04T01:31:48.841Z,0
2017-04-04T01:32:49.157Z,0
2017-04-04T01:34:03.769Z,0
2017-04-04T01:34:48.848Z,0
2017-04-04T01:35:49.825Z,0
2017-04-04T01:36:49.177Z,0
2017-04-04T01:37:49.190Z,0
2017-04-04T01:38:48.823Z,0
2017-04-04T01:39:49.250Z,0
2017-04-04T01:40:49.250Z,0
2017-04-04T01:41:49.149Z,0
2017-04-04T01:42:48.892Z,0
2017-04-04T01:43:49.218Z,0
2017-04-04T01:44:48.853Z,0
2017-04-04T01:45:49.224Z,0
2017-04-04T01:46:49.834Z,0
2017-04-04T01:47:49.485Z,0
2017-04-04T01:48:49.878Z,0
2017-04-04T01:49:49.505Z,0
2017-04-04T01:50:49.248Z,0
2017-04-04T01:51:49.204Z,0
2017-04-04T01:52:49.296Z,0
2017-04-04T01:53:49.227Z,0
2017-04-04T01:54:48.908Z,0
2017-04-04T01:55:48.643Z,0
2017-04-04T01:56:49.281Z,0
2017-04-04T01:57:49.283Z,0
2017-04-04T01:58:48.919Z,0
2017-04-04T01:59:50.660Z,0
2017-04-04T02:00:49.038Z,0
2017-04-04T02:01:50.049Z,0
2017-04-04T02:02:49.103Z,0
2017-04-04T02:03:51.720Z,0
2017-04-04T02:04:49.015Z,0
2017-04-04T02:05:49.321Z,0
2017-04-04T02:06:49.324Z,0
2017-04-04T02:07:49.282Z,0
2017-04-04T02:08:49.344Z,0
2017-04-04T02:09:48.691Z,0
2017-04-04T02:10:51.028Z,0
2017-04-04T02:11:48.991Z,0
2017-04-04T02:12:49.003Z,0
2017-04-04T02:13:49.046Z,0
2017-04-04T02:14:49.054Z,0
2017-04-04T02:15:49.329Z,0
2017-04-04T02:16:49.325Z,0
2017-04-04T02:17:49.646Z,0
2017-04-04T02:18:49.354Z,0
2017-04-04T02:19:49.631Z,0
2017-04-04T02:20:49.040Z,0
2017-04-04T02:21:49.400Z,0
2017-04-04T02:22:49.048Z,0
2017-04-04T02:23:49.423Z,0
2017-04-04T02:24:49.485Z,0
2017-04-04T02:25:49.371Z,0
2017-04-04T02:26:49.502Z,0
2017-04-04T02:27:49.395Z,0
2017-04-04T02:28:49.443Z,0
2017-04-04T02:29:49.452Z,0
2017-04-04T02:30:49.949Z,0
2017-04-04T02:31:49.760Z,0
2017-04-04T02:32:49.409Z,0
2017-04-04T02:33:49.161Z,0
2017-04-04T02:34:49.434Z,0
2017-04-04T02:35:49.166Z,0
2017-04-04T02:36:49.428Z,0
2017-04-04T02:37:48.856Z,0
2017-04-04T02:38:49.446Z,0
2017-04-04T02:39:49.541Z,0
2017-04-04T02:40:49.192Z,0
2017-04-04T02:41:50.262Z,0
2017-04-04T02:42:49.868Z,0
2017-04-04T02:43:49.622Z,0
2017-04-04T02:44:49.471Z,0
2017-04-04T02:45:49.205Z,0
2017-04-04T02:46:49.525Z,0
2017-04-04T02:47:49.590Z,0
2017-04-04T02:48:49.539Z,0
2017-04-04T02:49:48.922Z,0
2017-04-04T02:50:49.516Z,0
2017-04-04T02:51:49.558Z,0
2017-04-04T02:52:50.742Z,0
2017-04-04T02:53:49.562Z,0
2017-04-04T02:54:50.272Z,0
2017-04-04T02:55:49.526Z,0
2017-04-04T02:56:49.595Z,0
2017-04-04T02:57:49.588Z,0
2017-04-04T02:58:49.697Z,0
2017-04-04T02:59:49.653Z,0
2017-04-04T03:00:49.570Z,0
2017-04-04T03:01:49.448Z,0
2017-04-04T03:02:48.938Z,0
2017-04-04T03:04:18.746Z,0
2017-04-04T03:04:49.678Z,0
2017-04-04T03:05:50.533Z,0
2017-04-04T03:06:49.278Z,0
2017-04-04T03:07:49.018Z,0
2017-04-04T03:08:49.650Z,0
2017-04-04T03:09:49.598Z,0
2017-04-04T03:10:49.345Z,0
2017-04-04T03:11:49.346Z,0
2017-04-04T03:12:49.715Z,0
2017-04-04T03:13:49.625Z,0
2017-04-04T03:14:49.099Z,0
2017-04-04T03:15:49.325Z,0
2017-04-04T03:16:50.987Z,0
2017-04-04T03:17:49.427Z,0
2017-04-04T03:18:49.715Z,0
2017-04-04T03:19:49.701Z,0
2017-04-04T03:20:49.145Z,0
2017-04-04T03:21:49.660Z,0
2017-04-04T03:22:49.407Z,0
2017-04-04T03:23:49.676Z,0
2017-04-04T03:24:49.159Z,0
2017-04-04T03:25:49.741Z,0
2017-04-04T03:26:49.794Z,0
2017-04-04T03:27:49.421Z,0
2017-04-04T03:28:49.751Z,0
2017-04-04T03:29:49.700Z,0
2017-04-04T03:30:49.867Z,0
2017-04-04T03:31:49.759Z,0
2017-04-04T03:32:49.403Z,0
2017-04-04T03:33:49.457Z,0
2017-04-04T03:34:49.992Z,0
2017-04-04T03:35:49.469Z,0
2017-04-04T03:36:50.022Z,0
2017-04-04T03:37:49.170Z,0
2017-04-04T03:38:49.840Z,0
2017-04-04T03:39:49.811Z,0
2017-04-04T03:40:49.756Z,0
2017-04-04T03:41:49.824Z,0
2017-04-04T03:42:49.912Z,0
2017-04-04T03:43:49.824Z,0
2017-04-04T03:44:49.312Z,0
2017-04-04T03:45:49.886Z,0
2017-04-04T03:46:49.468Z,0
2017-04-04T03:47:50.398Z,0
2017-04-04T03:48:49.859Z,0
2017-04-04T03:49:49.807Z,0
2017-04-04T03:50:49.855Z,0
2017-04-04T03:51:49.860Z,0
2017-04-04T03:52:49.870Z,0
2017-04-04T03:53:49.554Z,0
2017-04-04T03:54:49.251Z,0
2017-04-04T03:55:49.894Z,0
2017-04-04T03:56:50.191Z,0
2017-04-04T03:57:49.888Z,0
2017-04-04T03:58:50.948Z,0
2017-04-04T03:59:49.594Z,0
2017-04-04T04:00:49.949Z,0
2017-04-04T04:01:49.926Z,0
2017-04-04T04:02:49.293Z,0
2017-04-04T04:03:49.851Z,0
2017-04-04T04:04:49.882Z,0
2017-04-04T04:05:49.931Z,0
2017-04-04T04:06:49.569Z,0
2017-04-04T04:07:49.649Z,0
2017-04-04T04:08:50.007Z,0
2017-04-04T04:09:51.665Z,0
2017-04-04T04:10:49.912Z,0
2017-04-04T04:11:51.014Z,0
2017-04-04T04:12:49.658Z,0
2017-04-04T04:13:49.938Z,0
2017-04-04T04:14:50.043Z,0
2017-04-04T04:15:49.684Z,0
2017-04-04T04:16:49.635Z,0
2017-04-04T04:17:50.295Z,0
2017-04-04T04:18:49.994Z,0
2017-04-04T04:19:50.005Z,0
2017-04-04T04:20:49.695Z,0
2017-04-04T04:21:49.962Z,0
2017-04-04T04:22:51.594Z,0
2017-04-04T04:23:49.972Z,0
2017-04-04T04:24:49.994Z,0
2017-04-04T04:25:49.788Z,0
2017-04-04T04:26:49.685Z,0
2017-04-04T04:27:50.008Z,0
2017-04-04T04:28:50.059Z,0
2017-04-04T04:29:50.004Z,0
2017-04-04T04:30:50.056Z,0
2017-04-04T04:31:50.137Z,0
2017-04-04T04:32:50.079Z,4
2017-04-04T04:33:50.037Z,0
2017-04-04T04:34:50.031Z,0
2017-04-04T04:35:49.782Z,4
2017-04-04T04:36:49.829Z,4
2017-04-04T04:37:50.113Z,0
2017-04-04T04:38:50.064Z,4
2017-04-04T04:39:49.481Z,4
2017-04-04T04:40:50.068Z,4
2017-04-04T04:41:50.122Z,4
2017-04-04T04:42:50.226Z,4
2017-04-04T04:43:50.092Z,8
2017-04-04T04:44:50.271Z,8
2017-04-04T04:45:49.773Z,8
2017-04-04T04:46:49.467Z,8
2017-04-04T04:47:50.155Z,12
2017-04-04T04:48:50.156Z,12
2017-04-04T04:49:50.963Z,16
2017-04-04T04:50:50.166Z,16
2017-04-04T04:51:49.862Z,16
2017-04-04T04:52:49.861Z,20
2017-04-04T04:53:50.787Z,24
2017-04-04T04:54:50.204Z,24
2017-04-04T04:55:50.232Z,28
2017-04-04T04:56:50.151Z,32
2017-04-04T04:57:50.155Z,36
2017-04-04T04:58:50.151Z,40
2017-04-04T04:59:50.210Z,40
2017-04-04T05:00:51.075Z,48
2017-04-04T05:01:50.281Z,48
2017-04-04T05:02:51.012Z,56
2017-04-04T05:03:49.934Z,56
2017-04-04T05:04:49.873Z,64
2017-04-04T05:05:49.614Z,68
2017-04-04T05:06:51.097Z,76
2017-04-04T05:07:50.352Z,80
2017-04-04T05:08:51.792Z,88
2017-04-04T05:09:50.050Z,96
2017-04-04T05:10:49.962Z,104
2017-04-04T05:11:49.924Z,116
2017-04-04T05:12:50.232Z,124
2017-04-04T05:13:50.338Z,132
2017-04-04T05:14:49.614Z,140
2017-04-04T05:15:50.237Z,152
2017-04-04T05:16:50.291Z,164
2017-04-04T05:17:49.682Z,176
2017-04-04T05:18:50.008Z,192
2017-04-04T05:19:49.699Z,204
2017-04-04T05:20:50.315Z,216
2017-04-04T05:21:50.375Z,228
2017-04-04T05:22:50.016Z,244
2017-04-04T05:23:50.334Z,256
2017-04-04T05:24:51.335Z,272
2017-04-04T05:25:50.355Z,288
2017-04-04T05:26:50.804Z,304
2017-04-04T05:27:50.299Z,320
2017-04-04T05:28:50.050Z,340
2017-04-04T05:29:50.375Z,356
2017-04-04T05:30:50.051Z,372
2017-04-04T05:31:49.696Z,388
2017-04-04T05:32:50.835Z,408
2017-04-04T05:33:50.352Z,428
2017-04-04T05:34:50.073Z,440
2017-04-04T05:35:51.323Z,460
2017-04-04T05:36:50.093Z,476
2017-04-04T05:37:51.537Z,488
2017-04-04T05:38:50.360Z,508
2017-04-04T05:39:50.859Z,524
2017-04-04T05:40:50.492Z,544
2017-04-04T05:41:50.371Z,560
2017-04-04T05:42:49.786Z,588
2017-04-04T05:43:50.116Z,608
2017-04-04T05:44:49.761Z,628
2017-04-04T05:45:50.237Z,644
2017-04-04T05:46:50.453Z,672
2017-04-04T05:47:50.419Z,704
2017-04-04T05:48:52.385Z,728
2017-04-04T05:49:50.466Z,760
2017-04-04T05:50:51.555Z,796
2017-04-04T05:51:50.426Z,804
2017-04-04T05:52:50.429Z,840
2017-04-04T05:53:50.443Z,884
2017-04-04T05:54:50.511Z,944
2017-04-04T05:55:50.497Z,1008
2017-04-04T05:56:50.451Z,1036
2017-04-04T05:57:51.356Z,1040
2017-04-04T05:58:50.518Z,1112
2017-04-04T05:59:50.475Z,1168
2017-04-04T06:00:50.222Z,1208
2017-04-04T06:01:49.857Z,1232
2017-04-04T06:02:50.302Z,1224
2017-04-04T06:03:50.187Z,1296
2017-04-04T06:04:49.971Z,1340
2017-04-04T06:05:50.509Z,1336
2017-04-04T06:06:50.507Z,1416
2017-04-04T06:07:50.249Z,1492
2017-04-04T06:08:51.585Z,1520
2017-04-04T06:09:50.540Z,1528
2017-04-04T06:10:51.514Z,1688
2017-04-04T06:11:50.597Z,1712
2017-04-04T06:12:50.618Z,1652
2017-04-04T06:13:50.024Z,1588
2017-04-04T06:14:50.240Z,1564
2017-04-04T06:15:50.723Z,1492
2017-04-04T06:16:50.617Z,1524
2017-04-04T06:17:50.567Z,1612
2017-04-04T06:18:50.690Z,1748
2017-04-04T06:19:50.577Z,1832
2017-04-04T06:20:50.635Z,1892
2017-04-04T06:21:51.492Z,1980
2017-04-04T06:22:50.591Z,2196
2017-04-04T06:23:51.194Z,2472
2017-04-04T06:24:50.353Z,2584
2017-04-04T06:25:50.448Z,2552
2017-04-04T06:26:50.629Z,2636
2017-04-04T06:27:50.685Z,2524
2017-04-04T06:28:51.115Z,2572
2017-04-04T06:29:50.401Z,2612
2017-04-04T06:30:51.894Z,2648
2017-04-04T06:31:50.658Z,2768
2017-04-04T06:32:50.350Z,2816
2017-04-04T06:33:50.670Z,2896
2017-04-04T06:34:51.784Z,3140
2017-04-04T06:35:50.726Z,3420
2017-04-04T06:36:50.159Z,3496
2017-04-04T06:37:50.695Z,3576
2017-04-04T06:38:50.480Z,3960
2017-04-04T06:39:50.751Z,4284
2017-04-04T06:40:50.773Z,4480
2017-04-04T06:41:51.271Z,4596
2017-04-04T06:42:50.454Z,4828
2017-04-04T06:43:50.724Z,4732
2017-04-04T06:44:50.743Z,4976
2017-04-04T06:45:50.478Z,5096
2017-04-04T06:46:50.763Z,5220
2017-04-04T06:47:50.814Z,5508
2017-04-04T06:48:50.915Z,5420
2017-04-04T06:49:50.767Z,5244
2017-04-04T06:50:50.826Z,3984
2017-04-04T06:51:50.851Z,2548
2017-04-04T06:52:51.736Z,2000
2017-04-04T06:53:50.528Z,1868
2017-04-04T06:54:51.100Z,1780
2017-04-04T06:55:50.808Z,1740
2017-04-04T06:56:50.502Z,1744
2017-04-04T06:57:50.831Z,1748
2017-04-04T06:58:50.575Z,1756
2017-04-04T06:59:50.890Z,1764
2017-04-04T07:00:50.887Z,1772
2017-04-04T07:01:50.852Z,1788
2017-04-04T07:02:50.584Z,1800
2017-04-04T07:03:52.162Z,1812
2017-04-04T07:04:50.599Z,1816
2017-04-04T07:05:51.456Z,1816
2017-04-04T07:06:50.937Z,1812
2017-04-04T07:07:50.618Z,1804
2017-04-04T07:08:50.623Z,1796
2017-04-04T07:09:50.625Z,1792
2017-04-04T07:10:51.017Z,1784
2017-04-04T07:11:50.902Z,1788
2017-04-04T07:12:50.965Z,1788
2017-04-04T07:13:50.622Z,1796
2017-04-04T07:14:52.651Z,1800
2017-04-04T07:15:50.926Z,1808
2017-04-04T07:16:51.983Z,1808
2017-04-04T07:17:50.699Z,1804
2017-04-04T07:18:51.005Z,1808
2017-04-04T07:19:50.643Z,1812
2017-04-04T07:20:51.106Z,1808
2017-04-04T07:21:51.033Z,1808
2017-04-04T07:22:53.224Z,1804
2017-04-04T07:23:51.037Z,1804
2017-04-04T07:24:51.098Z,1804
2017-04-04T07:25:50.990Z,1796
2017-04-04T07:26:50.989Z,1792
2017-04-04T07:27:52.625Z,1792
2017-04-04T07:28:52.825Z,1792
2017-04-04T07:29:50.402Z,1796
2017-04-04T07:30:51.061Z,1804
2017-04-04T07:31:51.023Z,1804
2017-04-04T07:32:51.083Z,1816
2017-04-04T07:33:51.134Z,1816
2017-04-04T07:34:50.781Z,1820
2017-04-04T07:35:50.733Z,1824
2017-04-04T07:36:51.534Z,1828
2017-04-04T07:37:51.100Z,1840
2017-04-04T07:38:51.073Z,1848
2017-04-04T07:39:51.136Z,1852
2017-04-04T07:40:51.088Z,1856
2017-04-04T07:41:51.135Z,1856
2017-04-04T07:42:51.088Z,1860
2017-04-04T07:43:50.889Z,1864
2017-04-04T07:44:51.102Z,1904
2017-04-04T07:45:50.841Z,1936
2017-04-04T07:46:51.175Z,1948
2017-04-04T07:47:52.155Z,1944
2017-04-04T07:48:50.851Z,1944
2017-04-04T07:49:51.434Z,1940
2017-04-04T07:50:51.132Z,1932
2017-04-04T07:51:51.127Z,1920
2017-04-04T07:52:50.820Z,1912
2017-04-04T07:53:50.266Z,1900
2017-04-04T07:54:50.994Z,1896
2017-04-04T07:55:51.161Z,1884
2017-04-04T07:56:51.213Z,1884
2017-04-04T07:57:50.854Z,1888
2017-04-04T07:58:52.476Z,1888
2017-04-04T07:59:51.186Z,1884
2017-04-04T08:00:51.738Z,1884
2017-04-04T08:01:50.944Z,1884
2017-04-04T08:02:51.310Z,1884
2017-04-04T08:03:51.650Z,1888
2017-04-04T08:04:51.251Z,1888
2017-04-04T08:05:51.261Z,1888
2017-04-04T08:06:50.649Z,1884
2017-04-04T08:07:51.282Z,1884
2017-04-04T08:08:51.284Z,1872
2017-04-04T08:09:50.970Z,1860
2017-04-04T08:10:50.984Z,1848
2017-04-04T08:11:52.359Z,1844
2017-04-04T08:12:50.411Z,1840
2017-04-04T08:13:51.309Z,1836
2017-04-04T08:14:50.636Z,1840
2017-04-04T08:15:51.317Z,1836
2017-04-04T08:16:50.973Z,1832
2017-04-04T08:17:51.082Z,1832
2017-04-04T08:18:51.302Z,1824
2017-04-04T08:19:51.404Z,1824
2017-04-04T08:20:51.084Z,1824
2017-04-04T08:21:51.346Z,1820
2017-04-04T08:22:52.418Z,1828
2017-04-04T08:23:51.362Z,1848
2017-04-04T08:24:51.395Z,1856
2017-04-04T08:25:51.081Z,1868
2017-04-04T08:26:50.808Z,1868
2017-04-04T08:27:51.331Z,1884
2017-04-04T08:28:51.084Z,1924
2017-04-04T08:29:51.044Z,3788
2017-04-04T08:30:51.095Z,11612
2017-04-04T08:31:51.757Z,17984
2017-04-04T08:32:51.481Z,19104
2017-04-04T08:33:51.213Z,19392
2017-04-04T08:34:52.434Z,19808
2017-04-04T08:35:51.080Z,20000
2017-04-04T08:36:51.404Z,20480
2017-04-04T08:37:51.082Z,20544
2017-04-04T08:38:51.481Z,20032
2017-04-04T08:39:50.541Z,13816
2017-04-04T08:40:51.484Z,5884
2017-04-04T08:41:50.811Z,2832
2017-04-04T08:42:52.476Z,2764
2017-04-04T08:43:50.873Z,2728
2017-04-04T08:44:51.877Z,2676
2017-04-04T08:45:51.461Z,2608
2017-04-04T08:46:51.537Z,2584
2017-04-04T08:47:51.222Z,2552
2017-04-04T08:48:51.248Z,2508
2017-04-04T08:49:52.396Z,2500
2017-04-04T08:50:51.523Z,2480
2017-04-04T08:51:51.560Z,2480
2017-04-04T08:52:51.523Z,2488
2017-04-04T08:53:53.246Z,2456
2017-04-04T08:54:51.603Z,2428
2017-04-04T08:55:52.739Z,2412
2017-04-04T08:56:51.245Z,2380
2017-04-04T08:57:51.335Z,2376
2017-04-04T08:58:50.991Z,2376
2017-04-04T08:59:51.303Z,2336
2017-04-04T09:00:51.351Z,2328
2017-04-04T09:01:51.579Z,2308
2017-04-04T09:02:51.791Z,2296
2017-04-04T09:03:51.819Z,2276
2017-04-04T09:04:51.368Z,2224
2017-04-04T09:05:51.711Z,2232
2017-04-04T09:06:50.713Z,2212
2017-04-04T09:07:51.450Z,2184
2017-04-04T09:08:51.360Z,2144
2017-04-04T09:09:51.639Z,2100
2017-04-04T09:10:51.072Z,2064
2017-04-04T09:11:51.422Z,2036
2017-04-04T09:12:51.699Z,2016
2017-04-04T09:13:52.556Z,1996
2017-04-04T09:14:51.717Z,1984
2017-04-04T09:15:52.052Z,1988
2017-04-04T09:16:51.410Z,1984
2017-04-04T09:17:51.457Z,1972
2017-04-04T09:18:51.682Z,1972
2017-04-04T09:19:51.679Z,1968
2017-04-04T09:20:51.434Z,1928
2017-04-04T09:21:51.382Z,1944
2017-04-04T09:22:51.748Z,1944
2017-04-04T09:23:51.715Z,1960
2017-04-04T09:24:51.425Z,1960
2017-04-04T09:25:51.719Z,1956
2017-04-04T09:26:53.080Z,1952
2017-04-04T09:27:53.977Z,1960
2017-04-04T09:28:52.237Z,1952
2017-04-04T09:29:51.449Z,1940
2017-04-04T09:30:51.802Z,1932
2017-04-04T09:31:51.778Z,1924
2017-04-04T09:32:51.501Z,1908
2017-04-04T09:34:06.392Z,1928
2017-04-04T09:34:51.469Z,1932
2017-04-04T09:35:51.836Z,1944
2017-04-04T09:36:51.844Z,1904
2017-04-04T09:37:53.298Z,1888
2017-04-04T09:38:51.538Z,1876
2017-04-04T09:39:52.616Z,1880
2017-04-04T09:40:51.863Z,1892
2017-04-04T09:41:51.835Z,1908
2017-04-04T09:42:51.839Z,1920
2017-04-04T09:43:51.566Z,1880
2017-04-04T09:44:51.633Z,1872
2017-04-04T09:45:51.315Z,1880
2017-04-04T09:46:51.648Z,1844
2017-04-04T09:47:51.600Z,1840
2017-04-04T09:48:51.549Z,1828
2017-04-04T09:49:51.872Z,1836
2017-04-04T09:50:52.947Z,1800
2017-04-04T09:51:52.044Z,1772
2017-04-04T09:52:51.987Z,1768
2017-04-04T09:53:52.002Z,1768
2017-04-04T09:54:51.915Z,1748
2017-04-04T09:55:51.959Z,1744
2017-04-04T09:56:51.650Z,1732
2017-04-04T09:57:52.183Z,1764
2017-04-04T09:58:51.982Z,1716
2017-04-04T09:59:52.031Z,1744
2017-04-04T10:00:51.939Z,1720
2017-04-04T10:01:52.986Z,1692
2017-04-04T10:02:52.063Z,1708
2017-04-04T10:03:52.016Z,1608
2017-04-04T10:04:51.960Z,1436
2017-04-04T10:05:51.666Z,1664
2017-04-04T10:06:52.138Z,1388
2017-04-04T10:07:52.024Z,1276
2017-04-04T10:08:52.694Z,1428
2017-04-04T10:09:52.109Z,1832
2017-04-04T10:10:52.041Z,1792
2017-04-04T10:11:52.000Z,1748
2017-04-04T10:12:52.071Z,1752
2017-04-04T10:13:52.072Z,1732
2017-04-04T10:14:52.074Z,1736
2017-04-04T10:15:51.777Z,1756
2017-04-04T10:16:52.090Z,1748
2017-04-04T10:17:52.095Z,1748
2017-04-04T10:18:52.049Z,1744
2017-04-04T10:19:53.190Z,1720
2017-04-04T10:20:52.181Z,1688
2017-04-04T10:21:52.611Z,1676
2017-04-04T10:22:51.859Z,1656
2017-04-04T10:23:52.082Z,1664
2017-04-04T10:24:52.079Z,1664
2017-04-04T10:25:51.775Z,1616
2017-04-04T10:26:52.192Z,1616
2017-04-04T10:27:52.151Z,1652
2017-04-04T10:28:51.894Z,1692
2017-04-04T10:29:52.168Z,1656
2017-04-04T10:30:52.122Z,1616
2017-04-04T10:31:51.879Z,1484
2017-04-04T10:32:52.904Z,1208
2017-04-04T10:33:52.184Z,1620
2017-04-04T10:34:52.636Z,1608
2017-04-04T10:35:51.885Z,1508
2017-04-04T10:36:51.843Z,1548
2017-04-04T10:37:52.222Z,1552
2017-04-04T10:38:51.861Z,1500
2017-04-04T10:39:51.553Z,1580
2017-04-04T10:40:52.026Z,1564
2017-04-04T10:41:52.282Z,1516
2017-04-04T10:42:51.884Z,1508
2017-04-04T10:43:53.978Z,1548
2017-04-04T10:44:52.201Z,1588
2017-04-04T10:45:51.900Z,1592
2017-04-04T10:46:52.010Z,1508
2017-04-04T10:47:52.056Z,1580
2017-04-04T10:48:52.222Z,1560
2017-04-04T10:49:52.296Z,1536
2017-04-04T10:50:51.610Z,1568
2017-04-04T10:51:51.717Z,1592
2017-04-04T10:52:52.939Z,1596
2017-04-04T10:53:51.994Z,1580
2017-04-04T10:54:52.422Z,1516
2017-04-04T10:55:52.054Z,1496
2017-04-04T10:56:51.963Z,1528
2017-04-04T10:57:52.400Z,1516
2017-04-04T10:58:51.970Z,1564
2017-04-04T10:59:52.028Z,1560
2017-04-04T11:00:52.313Z,1532
2017-04-04T11:01:52.093Z,1524
2017-04-04T11:02:52.412Z,1356
2017-04-04T11:03:53.563Z,1180
2017-04-04T11:04:52.073Z,1532
2017-04-04T11:05:52.827Z,1328
2017-04-04T11:06:52.392Z,1484
2017-04-04T11:07:52.494Z,1216
2017-04-04T11:08:52.357Z,1032
2017-04-04T11:09:52.096Z,1004
2017-04-04T11:10:52.145Z,1004
2017-04-04T11:11:52.362Z,1008
2017-04-04T11:12:52.132Z,1024
2017-04-04T11:13:52.421Z,1456
2017-04-04T11:14:53.851Z,1420
2017-04-04T11:15:52.387Z,1396
2017-04-04T11:16:53.280Z,1328
2017-04-04T11:17:52.556Z,1320
2017-04-04T11:18:52.418Z,1288
2017-04-04T11:19:52.458Z,1332
2017-04-04T11:20:51.858Z,1396
2017-04-04T11:21:52.537Z,1396
2017-04-04T11:22:52.224Z,1400
2017-04-04T11:23:52.232Z,1392
2017-04-04T11:24:52.549Z,1364
2017-04-04T11:25:52.494Z,1372
2017-04-04T11:26:52.515Z,1380
2017-04-04T11:27:53.877Z,1372
2017-04-04T11:28:52.212Z,1256
2017-04-04T11:29:52.213Z,1080
2017-04-04T11:30:52.489Z,1116
2017-04-04T11:31:52.592Z,1108
2017-04-04T11:32:52.588Z,1108
2017-04-04T11:33:52.188Z,1120
2017-04-04T11:34:52.553Z,1460
2017-04-04T11:35:51.943Z,1432
2017-04-04T11:36:52.616Z,1492
2017-04-04T11:37:52.581Z,1300
2017-04-04T11:38:52.593Z,1488
2017-04-04T11:39:52.218Z,1464
2017-04-04T11:40:52.653Z,1460
2017-04-04T11:41:52.288Z,1460
2017-04-04T11:42:52.554Z,1432
2017-04-04T11:43:52.256Z,1436
2017-04-04T11:44:52.255Z,1388
2017-04-04T11:45:52.262Z,1128
2017-04-04T11:46:52.643Z,1008
2017-04-04T11:47:53.090Z,996
2017-04-04T11:48:52.583Z,1096
2017-04-04T11:49:52.652Z,1376
2017-04-04T11:50:51.983Z,1084
2017-04-04T11:51:52.298Z,1072
2017-04-04T11:52:52.607Z,1084
2017-04-04T11:53:53.082Z,1108
2017-04-04T11:54:52.670Z,1116
2017-04-04T11:55:52.124Z,1104
2017-04-04T11:56:52.827Z,1088
2017-04-04T11:57:52.746Z,1100
2017-04-04T11:58:53.803Z,1368
2017-04-04T11:59:52.711Z,1416
2017-04-04T12:00:53.072Z,1396
2017-04-04T12:01:52.887Z,1364
2017-04-04T12:02:52.357Z,1340
2017-04-04T12:03:52.729Z,1312
2017-04-04T12:04:52.741Z,1308
2017-04-04T12:05:52.760Z,1304
2017-04-04T12:06:52.480Z,1300
2017-04-04T12:07:52.809Z,1260
2017-04-04T12:08:52.295Z,1192
2017-04-04T12:09:52.513Z,1152
2017-04-04T12:10:52.718Z,1152
2017-04-04T12:11:53.379Z,1124
2017-04-04T12:12:52.803Z,912
2017-04-04T12:13:52.428Z,1080
2017-04-04T12:14:52.938Z,824
2017-04-04T12:15:52.759Z,756
2017-04-04T12:16:52.818Z,744
2017-04-04T12:17:53.108Z,880
2017-04-04T12:18:52.837Z,744
2017-04-04T12:19:52.843Z,732
2017-04-04T12:20:52.536Z,740
2017-04-04T12:21:52.839Z,764
2017-04-04T12:22:52.213Z,832
2017-04-04T12:23:52.806Z,1060
2017-04-04T12:24:52.818Z,1056
2017-04-04T12:25:52.498Z,1060
2017-04-04T12:26:52.680Z,1084
2017-04-04T12:27:52.510Z,1076
2017-04-04T12:28:53.036Z,1072
2017-04-04T12:29:52.891Z,1052
2017-04-04T12:30:52.849Z,1024
2017-04-04T12:31:52.370Z,1012
2017-04-04T12:32:52.596Z,992
2017-04-04T12:33:53.402Z,1000
2017-04-04T12:34:52.294Z,980
2017-04-04T12:35:52.919Z,968
2017-04-04T12:36:52.874Z,952
2017-04-04T12:37:52.889Z,948
2017-04-04T12:38:52.628Z,928
2017-04-04T12:39:52.940Z,868
2017-04-04T12:40:52.591Z,916
2017-04-04T12:41:52.915Z,884
2017-04-04T12:42:54.393Z,836
2017-04-04T12:43:52.666Z,888
2017-04-04T12:44:53.528Z,944
2017-04-04T12:45:52.665Z,992
2017-04-04T12:46:53.085Z,996
2017-04-04T12:47:52.777Z,1024
2017-04-04T12:48:52.391Z,980
2017-04-04T12:49:54.664Z,972
2017-04-04T12:50:52.797Z,964
2017-04-04T12:51:52.663Z,972
2017-04-04T12:52:53.040Z,1020
2017-04-04T12:53:53.561Z,1016
2017-04-04T12:54:53.085Z,1008
2017-04-04T12:55:53.058Z,1072
2017-04-04T12:56:52.692Z,1092
2017-04-04T12:57:54.367Z,1100
2017-04-04T12:58:53.048Z,1012
2017-04-04T12:59:53.032Z,1012
2017-04-04T13:00:53.080Z,1124
2017-04-04T13:01:53.085Z,1092
2017-04-04T13:02:53.087Z,1120
2017-04-04T13:03:52.833Z,1024
2017-04-04T13:04:53.997Z,872
2017-04-04T13:05:52.746Z,852
2017-04-04T13:06:53.106Z,900
2017-04-04T13:07:53.164Z,796
2017-04-04T13:08:54.233Z,812
2017-04-04T13:09:52.645Z,892
2017-04-04T13:10:53.138Z,944
2017-04-04T13:11:53.134Z,932
2017-04-04T13:12:52.849Z,948
2017-04-04T13:13:52.826Z,924
2017-04-04T13:14:53.153Z,756
2017-04-04T13:15:53.124Z,852
2017-04-04T13:16:53.127Z,888
2017-04-04T13:17:52.864Z,924
2017-04-04T13:18:52.867Z,932
2017-04-04T13:19:54.385Z,908
2017-04-04T13:20:53.150Z,868
2017-04-04T13:21:53.158Z,840
2017-04-04T13:22:52.896Z,828
2017-04-04T13:23:53.164Z,816
2017-04-04T13:24:52.888Z,812
2017-04-04T13:25:52.650Z,816
2017-04-04T13:26:53.292Z,828
2017-04-04T13:27:53.235Z,824
2017-04-04T13:28:53.246Z,788
2017-04-04T13:29:53.193Z,740
2017-04-04T13:30:54.390Z,748
2017-04-04T13:31:52.894Z,736
2017-04-04T13:32:53.216Z,752
2017-04-04T13:33:53.115Z,776
2017-04-04T13:34:53.238Z,704
2017-04-04T13:35:53.235Z,696
2017-04-04T13:36:53.096Z,672
2017-04-04T13:37:53.288Z,664
2017-04-04T13:38:53.362Z,648
2017-04-04T13:39:53.269Z,636
2017-04-04T13:41:07.831Z,624
2017-04-04T13:41:54.106Z,624
2017-04-04T13:42:52.963Z,644
2017-04-04T13:43:53.342Z,712
2017-04-04T13:44:52.735Z,736
2017-04-04T13:45:55.050Z,744
2017-04-04T13:46:53.354Z,732
2017-04-04T13:47:53.308Z,720
2017-04-04T13:48:53.329Z,668
2017-04-04T13:49:53.097Z,660
2017-04-04T13:50:54.451Z,684
2017-04-04T13:51:53.067Z,656
2017-04-04T13:52:53.825Z,624